Portada
METAR-TAF:

METAR-TAF

Aeroports :

Nukus, Uzbekistan

latitud: 42-28-48N, longitud: 059-37-48E, altitud: 77 m

Observació

L'informe es va fer fa 53 minuts, a les 20:30 UTC
Vent 2 kt del Nord
Temperatura 25°C
Humitat 36%
Pressió 1010 hPa
Visibilitat 10 km o més
sense núvols per sota de 1500 mi sense presència de cumulonimbus.

METAR: UTNN 252030Z 36002KT CAVOK 25/09 Q1010 R15/CLRD60 NOSIG

Hora: 02:23 (21:23 UTC)

Pronòstic

L'informe es va fer fa 4 hores i 23 minuts, a les 17:00 UTC
Pronòstic vàlid del 25 a les 18 UTC al 26 a les 18 UTC
Vent 4 kt amb direcció variable
Visibilitat 10 km o més
sense núvols per sota de 1500 mi sense presència de cumulonimbus.
Temporalment
l' 26 a les 06 UTC al 26 a les 12 UTC
Vent 10 kt del Nord amb ràfegues de 20 kt

TAF: UTNN 251700Z 2518/2618 VRB04KT CAVOK TEMPO 2606/2612 36010G20KT

Observacions i pronòstics meteorològics de més de 4000 aeroports (METAR i TAF).

Les estacions disponibles són els punts grocs i vermells al mapa.

Posi el ratolí al punt desitjat per veure el nom de l'estació.

Feu clic per veure les observacions i els pronòstics meteorològics.

Per canviar el mapa: feu clic els botons verds amb una creu de color negre per apropar; al botó verd amb un guió per allunyar la imatge; o en les fletxes verdes per a mapes adjacents.


METAR-TAF: